TimeEDT,TemperatureF,Dew PointF,Humidity,Sea Level PressureIn,VisibilityMPH,Wind Direction,Wind SpeedMPH,Gust SpeedMPH,PrecipitationIn,Events,Conditions,WindDirDegrees,DateUTC
12:53 AM,68.0,66.0,93,30.14,10.0,NE,4.6,-,N/A,,Clear,50,2013-07-14 04:53:00
1:53 AM,68.0,66.0,93,30.13,10.0,Calm,Calm,-,N/A,,Clear,0,2013-07-14 05:53:00
2:53 AM,66.9,66.0,97,30.13,8.0,Calm,Calm,-,N/A,,Clear,0,2013-07-14 06:53:00
3:53 AM,66.9,64.9,93,30.13,8.0,Calm,Calm,-,N/A,,Clear,0,2013-07-14 07:53:00
4:53 AM,66.0,66.0,100,30.14,8.0,Calm,Calm,-,N/A,,Clear,0,2013-07-14 08:53:00
5:53 AM,66.0,64.9,96,30.15,6.0,Calm,Calm,-,N/A,,Clear,0,2013-07-14 09:53:00
6:53 AM,64.9,64.9,100,30.18,7.0,Calm,Calm,-,N/A,,Clear,0,2013-07-14 10:53:00
7:53 AM,72.0,68.0,87,30.18,10.0,Calm,Calm,-,N/A,,Clear,0,2013-07-14 11:53:00
8:53 AM,75.0,69.1,82,30.18,10.0,Calm,Calm,-,N/A,,Clear,0,2013-07-14 12:53:00
9:53 AM,80.1,70.0,71,30.19,10.0,SSE,10.4,-,N/A,,Clear,160,2013-07-14 13:53:00
10:53 AM,82.9,70.0,65,30.19,10.0,SE,8.1,-,N/A,,Clear,140,2013-07-14 14:53:00
11:53 AM,84.0,70.0,63,30.18,10.0,Variable,4.6,-,N/A,,Clear,0,2013-07-14 15:53:00
12:53 PM,87.1,71.1,59,30.18,10.0,SSE,9.2,-,N/A,,Partly Cloudy,150,2013-07-14 16:53:00
1:53 PM,87.1,71.1,59,30.17,10.0,SSE,5.8,-,N/A,,Scattered Clouds,160,2013-07-14 17:53:00
2:53 PM,88.0,72.0,59,30.17,10.0,ESE,6.9,-,N/A,,Scattered Clouds,110,2013-07-14 18:53:00
3:53 PM,89.1,72.0,57,30.17,10.0,Variable,3.5,-,N/A,,Mostly Cloudy,0,2013-07-14 19:53:00
4:53 PM,90.0,72.0,55,30.15,10.0,South,8.1,-,N/A,,Mostly Cloudy,170,2013-07-14 20:53:00
5:53 PM,89.1,72.0,57,30.15,10.0,East,6.9,-,N/A,,Mostly Cloudy,100,2013-07-14 21:53:00
6:53 PM,88.0,71.1,57,30.14,10.0,ESE,5.8,-,N/A,,Scattered Clouds,120,2013-07-14 22:53:00
7:53 PM,81.0,73.9,79,30.18,2.0,South,17.3,25.3,0.10,Rain,Heavy Rain,190,2013-07-14 23:53:00
8:02 PM,78.8,73.4,83,30.19,6.0,South,13.8,-,0.00,Rain,Light Rain,180,2013-07-15 00:02:00
8:53 PM,75.9,75.0,97,30.19,10.0,Calm,Calm,-,0.00,,Overcast,0,2013-07-15 00:53:00
9:53 PM,75.9,75.0,97,30.20,10.0,Calm,Calm,-,N/A,,Overcast,0,2013-07-15 01:53:00
10:53 PM,75.0,73.9,96,30.22,10.0,Calm,Calm,-,N/A,,Clear,0,2013-07-15 02:53:00
11:53 PM,73.9,73.9,100,30.23,9.0,Calm,Calm,-,N/A,,Clear,0,2013-07-15 03:53:00